Terminal Aerodrome Forecast
Issued by NWS

Home | Current Version | Previous Version | Text Only | Print | Product List | Glossary On
Versions: 1 2 3 4 5 6 7 8 9 10 11 12 13
000
FTUS45 KREV 181100
TAFTRK
TAF
KTRK 181120Z 1812/1912 VRB03KT P6SM SCT120 BKN160
     FM181800 23007KT P6SM SCT150
     FM182200 27010KT P6SM VCSH SCT040 BKN060
     FM190200 VRB03KT P6SM SCT060=

USA.gov is the U.S. government's official web portal to all federal, state and local government web resources and services.